Time;durP1;ratioP1;P1;durP2;ratioP2;P2;SDS_P1;SDS_P2;PMS_P1;PMS_P2;Temp;Humidity;BMP_temperature;BMP_pressure;BME280_temperature;BME280_humidity;BME280_pressure;Samples;Min_cycle;Max_cycle;Signal;HPM_P1;HPM_P2
2021/05/18 00:00:55;;;;;;;1999.90;999.90;;;9.20;99.90;;;;;;5053052;28;20523;-47
2021/05/18 00:03:22;;;;;;;1999.90;999.90;;;9.20;99.90;;;;;;5052962;28;20548;-54
2021/05/18 00:05:55;;;;;;;1999.90;999.90;;;9.10;99.90;;;;;;5053136;28;20647;-47
2021/05/18 00:08:24;;;;;;;1999.90;999.90;;;9.20;99.90;;;;;;5053004;28;20164;-47
2021/05/18 00:13:46;;;;;;;1999.90;999.90;;;9.00;99.90;;;;;;5053221;28;20207;-47
2021/05/18 00:16:13;;;;;;;1999.90;999.90;;;9.00;99.90;;;;;;5052821;28;20199;-46
2021/05/18 00:18:41;;;;;;;1999.90;999.90;;;9.00;99.90;;;;;;5052709;28;20169;-46
2021/05/18 00:21:08;;;;;;;1999.90;999.90;;;8.90;99.90;;;;;;5052706;28;20176;-46
2021/05/18 00:23:35;;;;;;;1999.90;999.90;;;8.90;99.90;;;;;;5052774;28;20168;-46
2021/05/18 00:26:03;;;;;;;1999.90;999.90;;;8.80;99.90;;;;;;5052782;28;20200;-46
2021/05/18 00:28:30;;;;;;;1999.90;999.90;;;8.80;99.90;;;;;;5052749;28;20180;-47
2021/05/18 00:30:57;;;;;;;1999.90;999.90;;;8.70;99.90;;;;;;5052893;28;20175;-51
2021/05/18 00:33:25;;;;;;;1999.90;999.90;;;8.70;99.90;;;;;;5052743;28;20310;-47
2021/05/18 00:35:52;;;;;;;1999.90;999.90;;;8.70;99.90;;;;;;5052377;28;20228;-46
2021/05/18 00:38:20;;;;;;;1999.90;999.90;;;8.60;99.90;;;;;;5052606;28;20191;-47
2021/05/18 00:40:49;;;;;;;1999.90;999.90;;;8.70;99.90;;;;;;5052529;28;20232;-46
2021/05/18 00:43:15;;;;;;;1999.90;999.90;;;8.70;99.90;;;;;;5052551;28;20533;-47
2021/05/18 00:45:48;;;;;;;1999.90;999.90;;;8.80;99.90;;;;;;5051321;28;20703;-48
2021/05/18 00:48:16;;;;;;;1999.90;999.90;;;8.70;99.90;;;;;;5052676;28;20553;-47
2021/05/18 00:50:45;;;;;;;1999.90;999.90;;;8.70;99.90;;;;;;5052555;28;20165;-47
2021/05/18 00:53:13;;;;;;;1999.90;999.90;;;8.70;99.90;;;;;;5052390;28;20176;-46
2021/05/18 00:55:42;;;;;;;1999.90;999.90;;;8.80;99.90;;;;;;5052269;28;20599;-46
2021/05/18 01:01:03;;;;;;;1999.90;999.90;;;8.80;99.90;;;;;;5056320;28;20171;-46
2021/05/18 01:03:32;;;;;;;1999.90;999.90;;;8.90;99.90;;;;;;5056399;28;20160;-46
2021/05/18 01:08:46;;;;;;;1999.90;999.90;;;8.90;99.90;;;;;;5056553;28;20560;-50
2021/05/18 01:11:14;;;;;;;1999.90;999.90;;;8.90;99.90;;;;;;5056225;28;20169;-45
2021/05/18 01:13:41;;;;;;;1999.90;999.90;;;8.90;99.90;;;;;;5056099;28;20197;-47
2021/05/18 01:16:10;;;;;;;1999.90;999.90;;;9.00;99.90;;;;;;5055984;28;20283;-46
2021/05/18 01:18:44;;;;;;;1999.90;999.90;;;8.90;99.90;;;;;;5055993;28;20166;-47
2021/05/18 01:21:12;;;;;;;1999.90;999.90;;;9.00;99.90;;;;;;5056267;28;20162;-46
2021/05/18 01:23:40;;;;;;;1999.90;999.90;;;9.00;99.90;;;;;;5055742;28;20599;-47
2021/05/18 01:26:09;;;;;;;1999.90;999.90;;;9.00;99.90;;;;;;5055982;28;20563;-47
2021/05/18 01:28:35;;;;;;;1999.90;999.90;;;8.90;99.90;;;;;;5055815;28;20168;-45
2021/05/18 01:31:05;;;;;;;1999.90;999.90;;;8.90;99.90;;;;;;5055734;28;20184;-45
2021/05/18 01:33:32;;;;;;;1999.90;999.90;;;8.80;99.90;;;;;;5055794;28;20165;-45
2021/05/18 01:36:01;;;;;;;1999.90;999.90;;;8.80;99.90;;;;;;5055416;28;20220;-45
2021/05/18 01:38:44;;;;;;;1999.90;999.90;;;8.80;99.90;;;;;;5055744;28;20165;-46
2021/05/18 01:44:07;;;;;;;1999.90;999.90;;;8.70;99.90;;;;;;4984215;28;20191;-45
2021/05/18 01:46:34;;;;;;;1999.90;999.90;;;8.70;99.90;;;;;;5054198;28;20181;-45
2021/05/18 01:49:09;;;;;;;1999.90;999.90;;;8.70;99.90;;;;;;5055369;28;20181;-45
2021/05/18 01:51:47;;;;;;;1999.90;999.90;;;8.70;99.90;;;;;;5055434;28;20212;-46
2021/05/18 01:54:22;;;;;;;1999.90;999.90;;;8.70;99.90;;;;;;5055381;28;20701;-45
2021/05/18 01:56:53;;;;;;;1999.90;999.90;;;8.60;99.90;;;;;;5055238;28;20322;-46
2021/05/18 01:59:23;;;;;;;1999.90;999.90;;;8.60;99.90;;;;;;5055164;28;20627;-45
2021/05/18 02:01:53;;;;;;;1999.90;999.90;;;8.50;99.90;;;;;;5055241;28;20691;-49
2021/05/18 02:04:31;;;;;;;1999.90;999.90;;;8.40;99.90;;;;;;5055228;28;20556;-47
2021/05/18 02:07:00;;;;;;;1999.90;999.90;;;8.40;99.90;;;;;;5055161;28;20521;-47
2021/05/18 02:09:27;;;;;;;1999.90;999.90;;;8.30;99.90;;;;;;5054841;28;20180;-46
2021/05/18 02:11:54;;;;;;;1999.90;999.90;;;8.20;99.90;;;;;;5055068;28;20630;-46
2021/05/18 02:14:32;;;;;;;1999.90;999.90;;;8.20;99.90;;;;;;5054909;28;20175;-45
2021/05/18 02:17:47;;;;;;;1999.90;999.90;;;8.30;99.90;;;;;;5055089;28;20281;-50
2021/05/18 02:20:07;;;;;;;1999.90;999.90;;;8.30;99.90;;;;;;5051808;28;20675;-45
2021/05/18 02:25:23;;;;;;;1999.90;999.90;;;8.30;99.90;;;;;;5055090;28;20512;-45
2021/05/18 02:27:51;;;;;;;1999.90;999.90;;;8.30;99.90;;;;;;5054711;28;20188;-45
2021/05/18 02:30:19;;;;;;;1999.90;999.90;;;8.30;99.90;;;;;;5054776;28;20673;-46
2021/05/18 02:32:48;;;;;;;1999.90;999.90;;;8.40;99.90;;;;;;5054646;28;20627;-45
2021/05/18 02:35:16;;;;;;;1999.90;999.90;;;8.40;99.90;;;;;;5054245;28;20322;-45
2021/05/18 02:37:44;;;;;;;1999.90;999.90;;;8.40;99.90;;;;;;5054411;28;20188;-48
2021/05/18 02:40:21;;;;;;;1999.90;999.90;;;8.40;99.90;;;;;;5054510;28;20179;-47
2021/05/18 02:42:49;;;;;;;1999.90;999.90;;;8.40;99.90;;;;;;5054348;28;20161;-45
2021/05/18 02:45:37;;;;;;;1999.90;999.90;;;8.40;99.90;;;;;;5054420;28;20175;-47
2021/05/18 02:50:50;;;;;;;1999.90;999.90;;;8.40;99.90;;;;;;5054607;28;20615;-45
2021/05/18 02:53:16;;;;;;;1999.90;999.90;;;8.30;99.90;;;;;;5054504;28;20175;-47
2021/05/18 02:55:55;;;;;;;1999.90;999.90;;;8.20;99.90;;;;;;5054109;28;20208;-52
2021/05/18 02:58:24;;;;;;;1999.90;999.90;;;8.20;99.90;;;;;;5054219;28;20157;-46
2021/05/18 03:00:51;;;;;;;1999.90;999.90;;;8.20;99.90;;;;;;5054085;28;20167;-46
2021/05/18 03:03:17;;;;;;;1999.90;999.90;;;8.20;99.90;;;;;;5053964;28;20168;-46
2021/05/18 03:05:45;;;;;;;1999.90;999.90;;;8.30;99.90;;;;;;5054096;28;20634;-47
2021/05/18 03:08:12;;;;;;;1999.90;999.90;;;8.30;99.90;;;;;;5053931;28;20254;-47
2021/05/18 03:10:39;;;;;;;1999.90;999.90;;;8.20;99.90;;;;;;5053937;28;20176;-51
2021/05/18 03:13:06;;;;;;;1999.90;999.90;;;8.20;99.90;;;;;;5053850;28;20527;-46
2021/05/18 03:15:33;;;;;;;1999.90;999.90;;;8.30;99.90;;;;;;5053851;28;20283;-45
2021/05/18 03:18:00;;;;;;;1999.90;999.90;;;8.20;99.90;;;;;;5053773;28;20177;-45
2021/05/18 03:20:27;;;;;;;1999.90;999.90;;;8.20;99.90;;;;;;5052919;28;20176;-47
2021/05/18 03:22:55;;;;;;;1999.90;999.90;;;8.20;99.90;;;;;;5053669;28;20202;-45
2021/05/18 03:25:22;;;;;;;1999.90;999.90;;;8.20;99.90;;;;;;5053659;28;20175;-45
2021/05/18 03:27:49;;;;;;;1999.90;999.90;;;8.20;99.90;;;;;;5053477;28;20173;-53
2021/05/18 03:35:45;;;;;;;1999.90;999.90;;;8.20;99.90;;;;;;5053148;28;20361;-45
2021/05/18 03:38:20;;;;;;;1999.90;999.90;;;8.20;99.90;;;;;;5053340;28;20173;-47
2021/05/18 03:40:53;;;;;;;1999.90;999.90;;;8.10;99.90;;;;;;5053409;28;20506;-45
2021/05/18 03:48:35;;;;;;;1999.90;999.90;;;8.10;99.90;;;;;;5053164;28;20193;-46
2021/05/18 03:48:54;;;;;;;1999.90;999.90;;;8.10;99.90;;;;;;5053291;28;20168;-45
2021/05/18 03:54:19;;;;;;;1999.90;999.90;;;8.00;99.90;;;;;;5053540;28;20160;-45
2021/05/18 04:04:53;;;;;;;1999.90;999.90;;;7.80;99.90;;;;;;5053317;28;20205;-46
2021/05/18 04:20:40;;;;;;;1999.90;999.90;;;7.50;99.90;;;;;;5052799;28;20504;-47
2021/05/18 04:23:18;;;;;;;1999.90;999.90;;;7.50;99.90;;;;;;5052964;28;20164;-44
2021/05/18 04:53:26;;;;;;;1999.90;999.90;;;7.70;99.90;;;;;;5056498;28;20176;-48
2021/05/18 05:04:20;;;;;;;1999.90;999.90;;;7.70;99.90;;;;;;5056298;28;20252;-45
2021/05/18 05:14:35;;;;;;;1999.90;999.90;;;7.80;99.90;;;;;;5056119;28;20164;-45
2021/05/18 05:17:02;;;;;;;1999.90;999.90;;;7.70;99.90;;;;;;5056070;28;20214;-47
2021/05/18 05:19:29;;;;;;;1999.90;999.90;;;7.70;99.90;;;;;;5056032;28;20172;-46
2021/05/18 05:22:00;;;;;;;1999.90;999.90;;;7.80;99.90;;;;;;5055805;28;20184;-46
2021/05/18 05:24:27;;;;;;;1999.90;999.90;;;7.80;99.90;;;;;;5055786;28;20247;-45
2021/05/18 05:26:55;;;;;;;1999.90;999.90;;;7.80;99.90;;;;;;5055741;28;20188;-45
2021/05/18 05:29:23;;;;;;;1999.90;999.90;;;7.70;99.90;;;;;;5055769;28;20203;-45
2021/05/18 05:31:52;;;;;;;1999.90;999.90;;;7.80;99.90;;;;;;5055471;28;20195;-45
2021/05/18 05:34:18;;;;;;;1999.90;999.90;;;7.80;99.90;;;;;;5055166;28;20169;-46
2021/05/18 05:36:46;;;;;;;1999.90;999.90;;;7.70;99.90;;;;;;5055619;28;20222;-53
2021/05/18 05:39:24;;;;;;;1999.90;999.90;;;7.80;99.90;;;;;;5055674;28;20183;-45
2021/05/18 05:41:55;;;;;;;1999.90;999.90;;;7.80;99.90;;;;;;5055186;28;20172;-45
2021/05/18 05:44:24;;;;;;;1999.90;999.90;;;7.80;99.90;;;;;;5054471;28;20160;-45
2021/05/18 05:46:51;;;;;;;1999.90;999.90;;;7.80;99.90;;;;;;5053576;28;20176;-45
2021/05/18 05:49:18;;;;;;;1999.90;999.90;;;7.90;99.90;;;;;;5055007;28;20635;-45
2021/05/18 05:51:45;;;;;;;1999.90;999.90;;;7.90;99.90;;;;;;5054898;28;20615;-52
2021/05/18 05:54:12;;;;;;;1999.90;999.90;;;7.80;99.90;;;;;;5055089;28;20608;-46
2021/05/18 05:56:39;;;;;;;1999.90;999.90;;;7.80;99.90;;;;;;5054977;28;20995;-48
2021/05/18 05:59:08;;;;;;;1999.90;999.90;;;7.80;99.90;;;;;;5054998;28;20648;-45
2021/05/18 06:01:35;;;;;;;1999.90;999.90;;;7.90;99.90;;;;;;5054841;28;20191;-48
2021/05/18 06:04:02;;;;;;;1999.90;999.90;;;7.80;99.90;;;;;;5054946;28;20164;-47
2021/05/18 06:06:29;;;;;;;1999.90;999.90;;;7.90;99.90;;;;;;5055100;28;20173;-48
2021/05/18 06:08:56;;;;;;;1999.90;999.90;;;8.00;99.90;;;;;;5053674;28;20176;-53
2021/05/18 06:46:35;;;;;;;1999.90;999.90;;;9.10;99.90;;;;;;5053942;28;20184;-45
2021/05/18 06:49:02;;;;;;;1999.90;999.90;;;9.90;99.90;;;;;;5053595;28;20308;-59
2021/05/18 06:51:28;;;;;;;1999.90;999.90;;;10.00;99.90;;;;;;5053499;28;20592;-56
2021/05/18 06:53:55;;;;;;;1999.90;999.90;;;10.00;99.90;;;;;;5053348;28;20246;-58
2021/05/18 06:56:31;;;;;;;1999.90;999.90;;;10.20;99.90;;;;;;5052401;28;20201;-54
2021/05/18 07:01:27;;;;;;;1999.90;999.90;;;10.10;99.90;;;;;;5053379;28;20165;-57
2021/05/18 07:03:56;;;;;;;1999.90;999.90;;;10.20;99.90;;;;;;5052378;28;20164;-46
2021/05/18 07:06:42;;;;;;;1999.90;999.90;;;10.40;99.90;;;;;;5053287;28;20603;-54
2021/05/18 07:09:09;;;;;;;1999.90;999.90;;;10.40;99.90;;;;;;5053201;28;20198;-52
2021/05/18 07:11:37;;;;;;;1999.90;999.90;;;10.50;99.90;;;;;;5053255;28;20161;-47
2021/05/18 07:14:05;;;;;;;1999.90;999.90;;;10.60;99.90;;;;;;5053320;28;20169;-52
2021/05/18 07:16:31;;;;;;;1999.90;999.90;;;10.80;99.90;;;;;;5053042;28;20211;-60
2021/05/18 07:18:59;;;;;;;1999.90;999.90;;;11.00;99.90;;;;;;5053363;28;20529;-61
2021/05/18 07:21:26;;;;;;;1999.90;999.90;;;11.10;99.90;;;;;;5053377;28;20180;-53
2021/05/18 07:23:53;;;;;;;1999.90;999.90;;;11.10;99.90;;;;;;5053414;28;20194;-49
2021/05/18 07:26:21;;;;;;;1999.90;999.90;;;11.20;99.90;;;;;;5053163;28;20257;-57
2021/05/18 07:28:47;;;;;;;1999.90;999.90;;;11.40;99.90;;;;;;5053125;28;20215;-42
2021/05/18 07:31:14;;;;;;;1999.90;999.90;;;11.90;99.90;;;;;;5052908;28;20176;-50
2021/05/18 07:33:42;;;;;;;1999.90;999.90;;;12.50;99.90;;;;;;5052916;28;20584;-57
2021/05/18 07:36:09;;;;;;;1999.90;999.90;;;12.70;99.90;;;;;;5052537;28;20231;-50
2021/05/18 07:38:38;;;;;;;1999.90;999.90;;;12.70;99.90;;;;;;5052972;28;20173;-55
2021/05/18 07:41:05;;;;;;;1999.90;999.90;;;12.70;99.90;;;;;;5052866;28;20188;-59
2021/05/18 07:43:32;;;;;;;1999.90;999.90;;;12.70;99.90;;;;;;5052922;28;20167;-49
2021/05/18 07:46:01;;;;;;;1999.90;999.90;;;12.80;99.90;;;;;;5052966;28;20165;-58
2021/05/18 07:49:09;;;;;;;1999.90;999.90;;;12.90;99.90;;;;;;5052506;28;20173;-52
2021/05/18 07:51:32;;;;;;;1999.90;999.90;;;13.00;99.90;;;;;;5052464;28;20270;-59
2021/05/18 07:59:36;;;;;;;1999.90;999.90;;;13.20;99.90;;;;;;5052535;28;20252;-58
2021/05/18 08:07:04;;;;;;;1999.90;999.90;;;13.70;99.90;;;;;;5051965;28;20173;-46
2021/05/18 08:09:34;;;;;;;1999.90;999.90;;;14.00;99.90;;;;;;5052290;28;20169;-46
2021/05/18 08:12:01;;;;;;;1999.90;999.90;;;15.00;99.90;;;;;;5052387;28;20200;-54
2021/05/18 08:14:28;;;;;;;1999.90;999.90;;;15.70;99.40;;;;;;5052606;28;20166;-55
2021/05/18 09:47:59;;;;;;;1999.90;999.90;;;20.90;64.50;;;;;;5055347;28;20165;-58
2021/05/18 10:35:59;;;;;;;1999.90;999.90;;;22.70;53.00;;;;;;5054082;28;20228;-58
2021/05/18 10:38:34;;;;;;;1999.90;999.90;;;22.90;50.70;;;;;;5054194;28;20153;-58
2021/05/18 10:41:07;;;;;;;1999.90;999.90;;;23.00;50.10;;;;;;5054197;28;20165;-52
2021/05/18 10:43:34;;;;;;;1999.90;999.90;;;22.90;50.60;;;;;;5054362;28;20650;-55
2021/05/18 10:46:07;;;;;;;1999.90;999.90;;;22.70;51.20;;;;;;5054408;28;20239;-55
2021/05/18 10:48:40;;;;;;;1999.90;999.90;;;22.50;49.60;;;;;;5052972;28;20261;-57
2021/05/18 10:51:23;;;;;;;1999.90;999.90;;;22.70;49.70;;;;;;5054028;28;20180;-48
2021/05/18 10:54:11;;;;;;;1999.90;999.90;;;22.90;49.50;;;;;;5054126;28;20528;-57
2021/05/18 10:56:59;;;;;;;1999.90;999.90;;;23.10;51.80;;;;;;5053914;28;20205;-54
2021/05/18 10:59:33;;;;;;;1999.90;999.90;;;23.30;49.10;;;;;;5053910;28;20229;-63
2021/05/18 11:02:10;;;;;;;1999.90;999.90;;;23.30;49.50;;;;;;5053532;28;20159;-56
2021/05/18 11:04:44;;;;;;;1999.90;999.90;;;23.30;51.60;;;;;;5052539;28;20166;-62
2021/05/18 11:07:15;;;;;;;1999.90;999.90;;;23.40;53.10;;;;;;5053786;28;20176;-60
2021/05/18 11:09:43;;;;;;;1999.90;999.90;;;23.50;51.70;;;;;;5053790;28;20172;-60
2021/05/18 11:12:21;;;;;;;1999.90;999.90;;;23.70;51.70;;;;;;5053781;28;20200;-61
2021/05/18 11:14:51;;;;;;;1999.90;999.90;;;23.80;51.00;;;;;;5053603;28;20533;-57
2021/05/18 11:17:19;;;;;;;1999.90;999.90;;;23.80;50.30;;;;;;5053097;28;20209;-59
2021/05/18 11:19:56;;;;;;;1999.90;999.90;;;23.90;50.80;;;;;;5053352;28;20166;-64
2021/05/18 11:25:09;;;;;;;1999.90;999.90;;;23.90;50.20;;;;;;5053583;28;20203;-58
2021/05/18 11:27:36;;;;;;;1999.90;999.90;;;24.00;47.60;;;;;;5053363;28;20639;-57
2021/05/18 11:30:05;;;;;;;1999.90;999.90;;;24.00;47.50;;;;;;5053214;28;20172;-55
2021/05/18 11:32:32;;;;;;;1999.90;999.90;;;24.00;47.30;;;;;;5053220;28;20642;-56
2021/05/18 11:35:05;;;;;;;1999.90;999.90;;;24.00;46.20;;;;;;5053084;28;20260;-55
2021/05/18 11:37:32;;;;;;;1999.90;999.90;;;24.00;45.00;;;;;;5052992;28;20204;-59
2021/05/18 11:40:12;;;;;;;1999.90;999.90;;;24.00;45.10;;;;;;5053072;28;20548;-54
2021/05/18 11:42:38;;;;;;;1999.90;999.90;;;23.90;45.40;;;;;;5052456;28;20214;-54
2021/05/18 11:45:17;;;;;;;1999.90;999.90;;;24.10;45.60;;;;;;5052824;28;20177;-55
2021/05/18 11:47:49;;;;;;;1999.90;999.90;;;24.30;45.20;;;;;;5051843;28;20169;-56
2021/05/18 11:50:26;;;;;;;1999.90;999.90;;;24.20;45.80;;;;;;5053022;28;20181;-55
2021/05/18 11:52:55;;;;;;;1999.90;999.90;;;24.30;45.00;;;;;;5052748;28;20532;-57
2021/05/18 11:55:28;;;;;;;1999.90;999.90;;;24.30;44.40;;;;;;5052724;28;20510;-57
2021/05/18 11:57:57;;;;;;;1999.90;999.90;;;24.30;46.90;;;;;;5052862;28;20168;-58
2021/05/18 12:00:30;;;;;;;1999.90;999.90;;;24.40;44.70;;;;;;5052781;28;20169;-57
2021/05/18 12:03:12;;;;;;;1999.90;999.90;;;24.40;46.20;;;;;;5052512;28;20210;-56
2021/05/18 12:05:54;;;;;;;1999.90;999.90;;;24.50;44.60;;;;;;5052824;28;20161;-57
2021/05/18 12:08:39;;;;;;;1999.90;999.90;;;24.50;43.90;;;;;;5052703;28;20260;-56
2021/05/18 12:11:16;;;;;;;1999.90;999.90;;;24.40;44.00;;;;;;5052667;28;20162;-56
2021/05/18 12:13:45;;;;;;;1999.90;999.90;;;24.50;44.30;;;;;;5052809;28;20230;-47
2021/05/18 12:16:13;;;;;;;1999.90;999.90;;;24.50;42.40;;;;;;5052512;28;20189;-43
2021/05/18 12:18:44;;;;;;;1999.90;999.90;;;24.70;44.90;;;;;;5052515;28;20203;-43
2021/05/18 12:21:18;;;;;;;1999.90;999.90;;;24.90;41.80;;;;;;5052671;28;20204;-45
2021/05/18 12:24:02;;;;;;;1999.90;999.90;;;24.90;41.30;;;;;;5052961;28;20632;-44
2021/05/18 12:26:29;;;;;;;1999.90;999.90;;;24.90;40.40;;;;;;5052381;28;20502;-56
2021/05/18 12:29:01;;;;;;;1999.90;999.90;;;24.90;40.20;;;;;;5052490;28;20173;-52
2021/05/18 12:31:33;;;;;;;1999.90;999.90;;;24.90;39.10;;;;;;5052320;28;20149;-64
2021/05/18 12:34:05;;;;;;;1999.90;999.90;;;24.80;39.30;;;;;;5051098;28;20201;-59
2021/05/18 12:36:47;;;;;;;1999.90;999.90;;;24.80;39.70;;;;;;5051947;28;20217;-61
2021/05/18 12:39:17;;;;;;;1999.90;999.90;;;24.90;40.00;;;;;;5052398;28;20763;-64
2021/05/18 12:41:57;;;;;;;1999.90;999.90;;;24.90;39.90;;;;;;5052238;28;20167;-45
2021/05/18 12:44:45;;;;;;;1999.90;999.90;;;24.80;37.80;;;;;;5050840;28;20345;-45
2021/05/18 12:47:12;;;;;;;1999.90;999.90;;;24.70;37.50;;;;;;5052061;28;20178;-43
2021/05/18 12:49:40;;;;;;;1999.90;999.90;;;24.70;37.80;;;;;;5050683;28;20169;-63
2021/05/18 12:52:13;;;;;;;1999.90;999.90;;;24.70;38.40;;;;;;5052137;28;20158;-59
2021/05/18 12:54:40;;;;;;;1999.90;999.90;;;24.70;39.50;;;;;;5056103;28;20635;-58
2021/05/18 12:57:08;;;;;;;1999.90;999.90;;;24.70;39.40;;;;;;5055774;28;20239;-58
2021/05/18 12:59:55;;;;;;;1999.90;999.90;;;24.70;39.30;;;;;;5055799;28;20177;-60
2021/05/18 13:02:31;;;;;;;1999.90;999.90;;;24.80;40.60;;;;;;5056190;28;20160;-57
2021/05/18 13:05:21;;;;;;;1999.90;999.90;;;24.90;38.90;;;;;;5056132;28;20165;-51
2021/05/18 13:08:18;;;;;;;1999.90;999.90;;;24.70;39.10;;;;;;5050229;28;20227;-48
2021/05/18 13:13:39;;;;;;;1999.90;999.90;;;24.60;40.30;;;;;;5056043;28;20161;-56
2021/05/18 13:16:18;;;;;;;1999.90;999.90;;;24.60;40.40;;;;;;5056050;28;20279;-48
2021/05/18 13:18:59;;;;;;;1999.90;999.90;;;24.70;41.00;;;;;;5054513;28;20169;-44
2021/05/18 13:21:37;;;;;;;1999.90;999.90;;;24.50;39.90;;;;;;5055878;28;20165;-59
2021/05/18 13:26:35;;;;;;;1999.90;999.90;;;24.50;40.20;;;;;;5055859;28;20176;-49
2021/05/18 13:29:04;;;;;;;1999.90;999.90;;;24.50;40.50;;;;;;5055078;28;20204;-45
2021/05/18 13:31:33;;;;;;;1999.90;999.90;;;24.50;41.40;;;;;;5055545;28;20628;-49
2021/05/18 13:34:00;;;;;;;1999.90;999.90;;;24.40;40.80;;;;;;5055723;28;20200;-66
2021/05/18 13:36:32;;;;;;;1999.90;999.90;;;24.40;41.60;;;;;;5054139;28;20290;-54
2021/05/18 13:39:01;;;;;;;1999.90;999.90;;;24.40;41.20;;;;;;5055304;28;20173;-56
2021/05/18 13:41:28;;;;;;;1999.90;999.90;;;24.30;41.40;;;;;;5055497;28;20631;-56
2021/05/18 13:43:55;;;;;;;1999.90;999.90;;;24.30;40.40;;;;;;5055604;28;20173;-57
2021/05/18 13:46:22;;;;;;;1999.90;999.90;;;24.30;41.40;;;;;;5055609;28;20204;-57
2021/05/18 13:48:49;;;;;;;1999.90;999.90;;;24.20;42.50;;;;;;5055286;28;20573;-57
2021/05/18 13:51:16;;;;;;;1999.90;999.90;;;24.20;41.80;;;;;;5055170;28;20682;-57
2021/05/18 13:53:45;;;;;;;1999.90;999.90;;;24.10;42.30;;;;;;5055183;28;20200;-57
2021/05/18 13:56:12;;;;;;;1999.90;999.90;;;24.10;41.90;;;;;;5054898;28;20212;-57
2021/05/18 13:58:39;;;;;;;1999.90;999.90;;;24.10;42.80;;;;;;5055127;28;20170;-55
2021/05/18 14:01:07;;;;;;;1999.90;999.90;;;24.10;42.90;;;;;;5055079;28;20248;-57
2021/05/18 14:03:35;;;;;;;1999.90;999.90;;;24.00;42.30;;;;;;5055175;28;20221;-57
2021/05/18 14:06:03;;;;;;;1999.90;999.90;;;24.00;42.70;;;;;;5054617;28;20158;-56
2021/05/18 14:08:33;;;;;;;1999.90;999.90;;;24.00;42.80;;;;;;5055127;28;20627;-57
2021/05/18 14:11:09;;;;;;;1999.90;999.90;;;23.90;43.20;;;;;;5054872;28;20177;-56
2021/05/18 14:13:38;;;;;;;1999.90;999.90;;;23.90;43.40;;;;;;5055392;28;20524;-56
2021/05/18 14:16:09;;;;;;;1999.90;999.90;;;23.90;42.90;;;;;;5054965;28;20227;-57
2021/05/18 14:18:37;;;;;;;1999.90;999.90;;;23.80;42.60;;;;;;5053751;28;20173;-58
2021/05/18 14:21:05;;;;;;;1999.90;999.90;;;23.70;42.40;;;;;;5055186;28;20535;-58
2021/05/18 14:23:45;;;;;;;1999.90;999.90;;;23.60;43.20;;;;;;5053720;28;20180;-58
2021/05/18 14:26:12;;;;;;;1999.90;999.90;;;23.60;43.60;;;;;;5054732;28;20244;-58
2021/05/18 14:28:40;;;;;;;1999.90;999.90;;;23.50;44.10;;;;;;5054682;28;20166;-58
2021/05/18 14:31:09;;;;;;;1999.90;999.90;;;23.50;44.10;;;;;;5054521;28;20248;-58
2021/05/18 14:33:37;;;;;;;1999.90;999.90;;;23.40;45.00;;;;;;5054633;28;20639;-58
2021/05/18 14:36:05;;;;;;;1999.90;999.90;;;23.20;44.70;;;;;;5054387;28;20588;-55
2021/05/18 14:38:33;;;;;;;1999.90;999.90;;;23.10;45.10;;;;;;5054483;28;20219;-56
2021/05/18 14:46:37;;;;;;;1999.90;999.90;;;23.00;45.60;;;;;;5054389;28;20528;-55
2021/05/18 14:57:10;;;;;;;1999.90;999.90;;;22.80;49.00;;;;;;5053692;28;20207;-57
2021/05/18 14:59:37;;;;;;;1999.90;999.90;;;22.80;48.90;;;;;;5053790;28;20165;-57
2021/05/18 15:20:26;;;;;;;1999.90;999.90;;;22.70;49.00;;;;;;5110215;27;20610;-58
2021/05/18 15:22:53;;;;;;;1999.90;999.90;;;22.40;51.60;;;;;;5110247;28;20207;-59
2021/05/18 15:25:23;;;;;;;1999.90;999.90;;;22.20;51.70;;;;;;5109957;28;20625;-56
2021/05/18 15:27:50;;;;;;;1999.90;999.90;;;22.10;52.30;;;;;;5110140;28;20171;-58
2021/05/18 15:30:17;;;;;;;1999.90;999.90;;;22.00;53.30;;;;;;5110166;28;20171;-58
2021/05/18 15:32:44;;;;;;;1999.90;999.90;;;21.90;53.80;;;;;;5110158;28;20167;-56
2021/05/18 15:35:11;;;;;;;1999.90;999.90;;;21.80;53.90;;;;;;5110195;28;20624;-58
2021/05/18 15:37:42;;;;;;;1999.90;999.90;;;21.60;54.30;;;;;;5110183;28;20163;-57
2021/05/18 15:40:09;;;;;;;1999.90;999.90;;;21.60;53.90;;;;;;5110174;28;20491;-57
2021/05/18 15:42:37;;;;;;;1999.90;999.90;;;21.40;57.20;;;;;;5109931;28;20722;-58
2021/05/18 15:45:05;;;;;;;1999.90;999.90;;;21.30;59.50;;;;;;5109899;28;20183;-58
2021/05/18 15:47:33;;;;;;;1999.90;999.90;;;21.10;62.40;;;;;;5110201;28;20573;-57
2021/05/18 15:50:00;;;;;;;1999.90;999.90;;;20.90;66.40;;;;;;5109890;28;20179;-54
2021/05/18 15:52:27;;;;;;;1999.90;999.90;;;20.70;70.80;;;;;;5109694;28;20532;-55
2021/05/18 15:54:54;;;;;;;1999.90;999.90;;;20.60;75.00;;;;;;5109730;28;20175;-55
2021/05/18 15:57:21;;;;;;;1999.90;999.90;;;20.30;77.00;;;;;;5109895;28;20168;-58
2021/05/18 15:59:49;;;;;;;1999.90;999.90;;;20.20;79.30;;;;;;5109924;28;20171;-55
2021/05/18 16:02:17;;;;;;;1999.90;999.90;;;20.00;79.10;;;;;;5109608;28;20286;-54
2021/05/18 16:04:44;;;;;;;1999.90;999.90;;;19.90;80.40;;;;;;5109676;28;20535;-54
2021/05/18 16:07:13;;;;;;;1999.90;999.90;;;19.70;81.20;;;;;;5109621;28;20633;-58
2021/05/18 16:09:40;;;;;;;1999.90;999.90;;;19.50;81.40;;;;;;5109651;28;20217;-54
2021/05/18 16:12:08;;;;;;;1999.90;999.90;;;19.40;80.30;;;;;;5109465;28;20270;-55
2021/05/18 16:26:11;;;;;;;1999.90;999.90;;;19.20;79.00;;;;;;5110671;27;20880;-54
2021/05/18 16:28:38;;;;;;;1999.90;999.90;;;18.60;80.60;;;;;;5109466;28;20191;-57
2021/05/18 16:31:07;;;;;;;1999.90;999.90;;;18.40;82.10;;;;;;5110226;28;20700;-60
2021/05/18 16:33:36;;;;;;;1999.90;999.90;;;18.30;81.00;;;;;;5110275;28;20197;-60
2021/05/18 16:36:06;;;;;;;1999.90;999.90;;;18.20;80.70;;;;;;5092137;28;20692;-61
2021/05/18 16:38:35;;;;;;;1999.90;999.90;;;18.10;81.80;;;;;;5109888;28;20673;-56
2021/05/18 16:41:04;;;;;;;1999.90;999.90;;;17.90;81.60;;;;;;5110161;28;20175;-52
2021/05/18 16:43:32;;;;;;;1999.90;999.90;;;17.80;82.50;;;;;;5110363;28;20167;-59
2021/05/18 16:46:00;;;;;;;1999.90;999.90;;;17.60;83.90;;;;;;5110302;28;20258;-57
2021/05/18 16:48:27;;;;;;;1999.90;999.90;;;17.50;84.40;;;;;;5110321;28;20159;-59
2021/05/18 16:50:55;;;;;;;1999.90;999.90;;;17.50;84.00;;;;;;5110296;28;20164;-58
2021/05/18 16:53:22;;;;;;;1999.90;999.90;;;17.40;84.10;;;;;;5109896;28;20160;-57
2021/05/18 16:55:49;;;;;;;1999.90;999.90;;;17.30;84.30;;;;;;5109758;28;20261;-58
2021/05/18 16:58:17;;;;;;;1999.90;999.90;;;17.40;84.60;;;;;;5109709;28;20167;-58
2021/05/18 17:00:45;;;;;;;1999.90;999.90;;;17.40;86.30;;;;;;5109482;28;20204;-58
2021/05/18 17:03:14;;;;;;;1999.90;999.90;;;17.30;86.90;;;;;;5109659;28;20171;-56
2021/05/18 17:05:41;;;;;;;1999.90;999.90;;;17.20;87.70;;;;;;5109418;28;20166;-55
2021/05/18 17:08:08;;;;;;;1999.90;999.90;;;17.20;88.60;;;;;;5109429;28;20164;-58
2021/05/18 17:10:38;;;;;;;1999.90;999.90;;;17.20;89.50;;;;;;5109690;28;20643;-58
2021/05/18 17:13:05;;;;;;;1999.90;999.90;;;17.10;89.80;;;;;;5109721;28;20167;-55
2021/05/18 17:15:33;;;;;;;1999.90;999.90;;;17.00;89.30;;;;;;5109647;28;20333;-57
2021/05/18 17:18:00;;;;;;;1999.90;999.90;;;17.00;90.70;;;;;;5109739;28;20570;-58
2021/05/18 17:20:30;;;;;;;1999.90;999.90;;;16.90;90.00;;;;;;5109771;28;20159;-59
2021/05/18 17:22:58;;;;;;;1999.90;999.90;;;16.80;90.10;;;;;;5109720;28;20224;-59
2021/05/18 17:25:25;;;;;;;1999.90;999.90;;;16.70;90.40;;;;;;5105025;28;20294;-58
2021/05/18 17:27:52;;;;;;;1999.90;999.90;;;16.50;91.40;;;;;;5095589;28;20214;-53
2021/05/18 17:30:23;;;;;;;1999.90;999.90;;;16.40;91.20;;;;;;5095700;28;20172;-57
2021/05/18 17:32:51;;;;;;;1999.90;999.90;;;16.30;92.10;;;;;;5095627;28;20218;-58
2021/05/18 17:35:18;;;;;;;1999.90;999.90;;;16.20;92.60;;;;;;5095535;28;20283;-57
2021/05/18 17:37:45;;;;;;;1999.90;999.90;;;16.10;93.00;;;;;;5095689;28;20160;-57
2021/05/18 17:40:14;;;;;;;1999.90;999.90;;;15.90;93.20;;;;;;5095485;28;20178;-58
2021/05/18 17:42:41;;;;;;;1999.90;999.90;;;15.80;94.30;;;;;;5095376;28;20660;-58
2021/05/18 17:45:12;;;;;;;1999.90;999.90;;;15.70;95.20;;;;;;5095409;28;20578;-54
2021/05/18 17:47:40;;;;;;;1999.90;999.90;;;15.70;96.00;;;;;;5095400;28;20175;-57